New Richmond Regional Airport
KRNH : now visible

Airfield :











YOU CAN JOIN US ON...

 
LOGIN :

Register | Disclaimer

   EN    FR    IT 

 









Legend :    VFR   Marginal VFR   IFR   Intensive IFR   Very Intensive IFR
Visi :
Ceiling :
>= 8 km
>= 3000ft
5 to 8 km
1000 to 3000 ft
1500m to 5 km
500 to 1000 ft
800 to 1500m
200 to 500 ft
< 800m
< 200 ft
Symbols :   Thunderstorms  Fog  Heavy snow  Heavy precipitations  Wind > 20 kt






- Airport Elevation : 998 ft


KRNH - New Richmond Regional

CURRENT METAR :
  • 150915Z AUTO 30004KT 10SM CLR M22/M25 A3004 RMK AO2 T12231252

EXPIRED METARs :
  • 150855Z AUTO 30004KT 10SM CLR M20/M23 A3004 RMK AO2 T12051230
  • 150835Z AUTO 30004KT 10SM CLR M22/M25 A3004 RMK AO2 T12221250
  • 150815Z AUTO 32004KT 10SM CLR M21/M23 A3003 RMK AO2 T12071231
  • 150755Z AUTO 32005KT 10SM CLR M21/M23 A3003 RMK AO2 T12091233
  • 150735Z AUTO 32005KT 10SM CLR M21/M23 A3002 RMK AO2 T12091233
  • 150715Z AUTO 29006KT 10SM CLR M21/M23 A3003 RMK AO2 T12121235
  • 150655Z AUTO 28005KT 10SM CLR M20/M23 A3002 RMK AO2 T12041229

TAF KRNH
Valid from the 15 at 06:00 until the 16 at 06:00 UTC


150520Z 1506/1606 31004KT P6SM FEW020 SCT100
FM151000 00000KT P6SM OVC100
FM152300 19005KT P6SM OVC050



MET'MAP, your aeronautical weather chart ! - Copyright ORBIFLY December 2007 - Disclaimer

ORBIFLY MET'MAP TEAM :

Programming & Development : Alexandra Zaïnal
Concept & original design : Baudouin d'Aumeries
Assistance for programming : Marc-Olivier Méhu
Technical & hardware support : Manuel Goepfert

Contact : metmap@orbifly.com




SOURCES & CREDITS :

   NOAA       Earth
Advisory